createdAt,value
2018-06-15T00:02:33.429Z,99.90
2018-06-15T00:07:17.929Z,99.90
2018-06-15T00:12:02.321Z,99.90
2018-06-15T00:16:46.781Z,99.90
2018-06-15T00:21:31.114Z,99.90
2018-06-15T00:26:15.589Z,99.90
2018-06-15T00:30:59.944Z,99.90
2018-06-15T00:35:44.355Z,99.90
2018-06-15T00:40:29.173Z,99.90
2018-06-15T00:45:13.868Z,99.90
2018-06-15T00:49:58.503Z,99.90
2018-06-15T00:54:43.030Z,99.90
2018-06-15T00:59:27.378Z,99.90
2018-06-15T01:04:11.799Z,99.90
2018-06-15T01:08:56.163Z,99.90
2018-06-15T01:13:40.504Z,99.90
2018-06-15T01:18:25.027Z,99.90
2018-06-15T01:23:09.458Z,99.90
2018-06-15T01:27:53.921Z,99.90
2018-06-15T01:32:38.315Z,99.90
2018-06-15T01:37:22.668Z,99.90
2018-06-15T01:42:07.033Z,99.90
2018-06-15T01:46:51.544Z,99.90
2018-06-15T01:51:35.907Z,99.90
2018-06-15T01:56:20.362Z,99.90
2018-06-15T02:01:04.693Z,99.90
2018-06-15T02:05:49.100Z,99.90
2018-06-15T02:10:33.491Z,99.90
2018-06-15T02:15:17.947Z,99.90
2018-06-15T02:20:02.298Z,99.90
2018-06-15T02:24:46.661Z,99.90
2018-06-15T02:29:31.110Z,99.90
2018-06-15T02:34:15.471Z,99.90
2018-06-15T02:39:00.071Z,99.90
2018-06-15T02:43:44.477Z,99.90
2018-06-15T02:48:28.958Z,99.90
2018-06-15T02:53:13.322Z,99.90
2018-06-15T02:57:57.695Z,99.90
2018-06-15T03:02:42.101Z,99.90
2018-06-15T03:07:26.474Z,99.90
2018-06-15T03:12:10.972Z,99.90
2018-06-15T03:16:55.449Z,99.90
2018-06-15T03:21:39.947Z,99.90
2018-06-15T03:26:24.430Z,99.90
2018-06-15T03:31:08.863Z,99.90
2018-06-15T03:35:53.219Z,99.90
2018-06-15T03:40:37.704Z,99.90
2018-06-15T03:45:22.230Z,99.90
2018-06-15T03:50:06.686Z,99.90
2018-06-15T03:54:51.290Z,99.90
2018-06-15T03:59:35.715Z,99.90
2018-06-15T04:04:20.102Z,99.90
2018-06-15T04:09:06.607Z,99.90
2018-06-15T04:13:50.966Z,99.90
2018-06-15T04:18:35.330Z,99.90
2018-06-15T04:23:19.803Z,99.90
2018-06-15T04:28:04.170Z,99.90
2018-06-15T04:32:48.794Z,99.90
2018-06-15T04:37:33.165Z,99.90
2018-06-15T04:42:17.581Z,99.90
2018-06-15T04:47:02.097Z,99.90
2018-06-15T04:51:46.628Z,99.90
2018-06-15T04:56:32.012Z,99.90
2018-06-15T05:01:16.762Z,99.90
2018-06-15T05:06:01.207Z,99.90
2018-06-15T05:10:45.759Z,99.90
2018-06-15T05:15:30.183Z,99.90
2018-06-15T05:20:14.499Z,99.90
2018-06-15T05:24:58.972Z,99.90
2018-06-15T05:29:43.341Z,99.90
2018-06-15T05:34:27.837Z,99.90
2018-06-15T05:39:12.662Z,99.90
2018-06-15T05:43:57.090Z,99.90
2018-06-15T05:48:41.541Z,99.90
2018-06-15T05:53:26.117Z,99.90
2018-06-15T05:58:10.659Z,99.90
2018-06-15T06:02:55.148Z,99.90
2018-06-15T06:07:39.762Z,99.90
2018-06-15T06:12:24.272Z,99.90
2018-06-15T06:17:08.650Z,99.90
2018-06-15T06:21:53.215Z,99.90
2018-06-15T06:26:37.879Z,99.90
2018-06-15T06:31:22.326Z,99.90
2018-06-15T06:36:06.850Z,99.90
2018-06-15T06:40:51.236Z,99.90
2018-06-15T06:45:35.623Z,99.90
2018-06-15T06:50:20.091Z,99.90
2018-06-15T06:55:04.670Z,99.90
2018-06-15T06:59:49.094Z,99.90
2018-06-15T07:04:33.651Z,99.90
2018-06-15T07:09:18.077Z,99.90
2018-06-15T07:14:02.529Z,99.90
2018-06-15T07:18:46.851Z,99.90
2018-06-15T07:23:31.495Z,99.90
2018-06-15T07:28:15.887Z,99.90
2018-06-15T07:33:00.338Z,99.90
2018-06-15T07:37:44.719Z,99.60
2018-06-15T07:42:29.066Z,98.30
2018-06-15T07:47:13.466Z,97.40
2018-06-15T07:51:58.034Z,98.10
2018-06-15T07:56:42.397Z,96.20
2018-06-15T08:01:26.872Z,94.60
2018-06-15T08:06:11.322Z,94.50
2018-06-15T08:10:55.695Z,93.90
2018-06-15T08:15:40.064Z,93.40
2018-06-15T08:20:24.576Z,93.30
2018-06-15T08:25:09.071Z,90.80
2018-06-15T08:29:53.665Z,90.60
2018-06-15T08:34:37.999Z,90.30
2018-06-15T08:39:22.352Z,87.70
2018-06-15T08:48:50.754Z,83.70
2018-06-15T08:53:35.424Z,82.40
2018-06-15T08:58:19.837Z,80.10
2018-06-15T09:03:04.978Z,78.00
2018-06-15T09:07:49.444Z,75.60
2018-06-15T09:12:33.890Z,74.30
2018-06-15T09:17:18.327Z,77.50
2018-06-15T09:22:02.947Z,81.50
2018-06-15T09:26:47.465Z,81.70
2018-06-15T09:31:31.870Z,78.20
2018-06-15T09:36:16.325Z,82.10
2018-06-15T09:41:00.743Z,78.10
2018-06-15T09:45:45.113Z,76.70
2018-06-15T09:50:29.554Z,78.20
2018-06-15T09:55:13.883Z,74.30
2018-06-15T09:59:58.258Z,73.50
2018-06-15T10:04:42.806Z,73.70
2018-06-15T10:09:27.322Z,74.70
2018-06-15T10:14:11.650Z,71.70
2018-06-15T10:18:56.157Z,71.60
2018-06-15T10:23:40.622Z,70.30
2018-06-15T10:28:25.165Z,65.00
2018-06-15T10:33:10.117Z,65.60
2018-06-15T10:37:54.628Z,64.80
2018-06-15T10:42:39.081Z,64.00
2018-06-15T10:47:23.518Z,62.40
2018-06-15T10:52:07.886Z,62.60
2018-06-15T10:56:52.848Z,63.00
2018-06-15T11:01:37.399Z,62.90
2018-06-15T11:06:21.927Z,63.30
2018-06-15T11:11:06.310Z,60.70
2018-06-15T11:15:50.618Z,64.40
2018-06-15T11:20:35.067Z,61.50
2018-06-15T11:25:19.488Z,59.20
2018-06-15T11:30:03.925Z,62.80
2018-06-15T11:34:48.222Z,62.80
2018-06-15T11:39:32.618Z,58.70
2018-06-15T11:44:17.202Z,59.00
2018-06-15T11:49:01.633Z,62.30
2018-06-15T11:53:46.122Z,61.70
2018-06-15T11:58:30.535Z,60.60
2018-06-15T12:03:15.062Z,63.30
2018-06-15T12:07:59.522Z,64.90
2018-06-15T12:12:43.985Z,67.50
2018-06-15T12:17:28.336Z,70.70
2018-06-15T12:22:12.754Z,67.40
2018-06-15T12:26:57.213Z,67.80
2018-06-15T12:31:41.608Z,63.90
2018-06-15T12:36:25.973Z,62.90
2018-06-15T12:41:10.508Z,61.90
2018-06-15T12:45:54.934Z,59.70
2018-06-15T12:50:39.226Z,57.40
2018-06-15T12:55:23.599Z,55.00
2018-06-15T13:00:08.100Z,56.70
2018-06-15T13:04:52.743Z,60.20
2018-06-15T13:09:37.125Z,59.90
2018-06-15T13:14:21.542Z,59.30
2018-06-15T13:19:05.996Z,60.90
2018-06-15T13:23:50.721Z,61.30
2018-06-15T13:28:35.543Z,59.70
2018-06-15T13:33:20.266Z,59.30
2018-06-15T13:38:04.809Z,59.20
2018-06-15T13:42:49.397Z,59.40
2018-06-15T13:47:33.846Z,62.00
2018-06-15T13:52:18.218Z,61.10
2018-06-15T13:57:02.556Z,57.50
2018-06-15T14:01:47.004Z,60.30
2018-06-15T14:06:31.295Z,56.50
2018-06-15T14:11:15.812Z,53.50
2018-06-15T14:16:00.324Z,52.70
2018-06-15T14:20:44.769Z,54.90
2018-06-15T14:25:29.322Z,57.40
2018-06-15T14:30:13.631Z,58.30
2018-06-15T14:34:58.100Z,58.30
2018-06-15T14:39:42.448Z,60.20
2018-06-15T14:44:26.931Z,57.80
2018-06-15T14:49:11.458Z,58.00
2018-06-15T14:53:55.879Z,59.30
2018-06-15T14:58:40.465Z,61.30
2018-06-15T15:03:25.969Z,63.90
2018-06-15T15:08:10.467Z,65.10
2018-06-15T15:12:54.851Z,65.90
2018-06-15T15:17:40.106Z,67.00
2018-06-15T15:22:24.539Z,68.60
2018-06-15T15:27:08.974Z,69.90
2018-06-15T15:31:53.427Z,69.90
2018-06-15T15:36:38.045Z,69.80
2018-06-15T15:41:22.446Z,70.00
2018-06-15T15:46:06.948Z,70.30
2018-06-15T15:50:51.355Z,69.00
2018-06-15T15:55:36.075Z,70.10
2018-06-15T16:00:20.566Z,70.40
2018-06-15T16:05:04.990Z,72.00
2018-06-15T16:09:49.377Z,70.20
2018-06-15T16:14:33.863Z,70.00
2018-06-15T16:19:18.347Z,68.80
2018-06-15T16:24:02.815Z,69.30
2018-06-15T16:28:47.513Z,70.10
2018-06-15T16:33:32.078Z,69.60
2018-06-15T16:38:16.608Z,69.90
2018-06-15T16:43:00.989Z,69.30
2018-06-15T16:47:45.514Z,69.90
2018-06-15T16:52:29.970Z,70.00
2018-06-15T16:57:14.512Z,71.10
2018-06-15T17:01:59.050Z,73.10
2018-06-15T17:06:43.645Z,75.00
2018-06-15T17:11:28.023Z,75.40
2018-06-15T17:16:12.522Z,76.20
2018-06-15T17:20:56.904Z,77.30
2018-06-15T17:25:41.688Z,78.20
2018-06-15T17:30:26.385Z,78.40
2018-06-15T17:35:10.808Z,79.60
2018-06-15T17:39:55.648Z,79.50
2018-06-15T17:44:40.146Z,79.40
2018-06-15T17:49:24.891Z,79.50
2018-06-15T17:54:09.544Z,80.10
2018-06-15T17:58:54.200Z,80.10
2018-06-15T18:03:38.807Z,81.00
2018-06-15T18:08:28.290Z,81.80
2018-06-15T18:13:12.775Z,82.50
2018-06-15T18:17:57.272Z,82.40
2018-06-15T18:22:41.751Z,83.50
2018-06-15T18:27:26.147Z,85.30
2018-06-15T18:32:10.578Z,86.60
2018-06-15T18:36:55.127Z,88.60
2018-06-15T18:41:39.792Z,90.90
2018-06-15T18:46:24.303Z,91.20
2018-06-15T18:51:08.709Z,91.70
2018-06-15T18:55:53.197Z,92.90
2018-06-15T19:00:37.636Z,93.50
2018-06-15T19:05:22.116Z,94.50
2018-06-15T19:10:06.729Z,95.50
2018-06-15T19:14:51.652Z,96.40
2018-06-15T19:19:36.436Z,97.40
2018-06-15T19:24:21.255Z,98.50
2018-06-15T19:29:06.359Z,99.30
2018-06-15T19:33:50.853Z,99.90
2018-06-15T19:38:35.595Z,99.90
2018-06-15T19:43:20.624Z,99.90
2018-06-15T19:48:05.911Z,99.90
2018-06-15T19:52:51.101Z,99.90
2018-06-15T19:57:36.457Z,99.90
2018-06-15T20:02:21.500Z,99.90
2018-06-15T20:07:06.533Z,99.90
2018-06-15T20:11:51.276Z,99.90
2018-06-15T20:16:36.368Z,99.90
2018-06-15T20:21:21.599Z,99.90
2018-06-15T20:26:06.888Z,99.90
2018-06-15T20:30:52.281Z,99.90
2018-06-15T20:35:37.310Z,99.90
2018-06-15T20:40:22.422Z,99.90
2018-06-15T20:45:07.593Z,99.90
2018-06-15T20:49:52.773Z,99.90
2018-06-15T20:54:37.786Z,99.90
2018-06-15T20:59:22.587Z,99.90
2018-06-15T21:04:07.674Z,99.90
2018-06-15T21:08:52.530Z,99.90
2018-06-15T21:13:37.138Z,99.90
2018-06-15T21:18:21.629Z,99.90
2018-06-15T21:23:06.165Z,99.90
2018-06-15T21:27:50.552Z,99.90
2018-06-15T21:32:35.119Z,99.90
2018-06-15T21:37:19.633Z,99.90
2018-06-15T21:42:04.181Z,99.90
2018-06-15T21:46:48.644Z,99.90
2018-06-15T21:51:33.003Z,99.90
2018-06-15T21:56:17.414Z,99.90
2018-06-15T22:01:01.778Z,99.90
2018-06-15T22:05:46.219Z,99.90
2018-06-15T22:10:30.640Z,99.90
2018-06-15T22:15:15.136Z,99.90
2018-06-15T22:19:59.495Z,99.90
2018-06-15T22:24:43.806Z,99.90
2018-06-15T22:29:28.864Z,99.90
2018-06-15T22:34:13.308Z,99.90
2018-06-15T22:38:57.795Z,99.90
2018-06-15T22:43:42.243Z,99.90
2018-06-15T22:48:26.658Z,99.90
2018-06-15T22:53:11.622Z,99.90
2018-06-15T22:57:56.009Z,99.90
2018-06-15T23:02:40.458Z,99.90
2018-06-15T23:07:25.219Z,99.90
2018-06-15T23:12:10.479Z,99.90
2018-06-15T23:16:54.985Z,99.90
2018-06-15T23:21:39.397Z,99.90
2018-06-15T23:26:23.878Z,99.90
2018-06-15T23:31:08.514Z,99.90
2018-06-15T23:35:53.311Z,99.90
2018-06-15T23:40:37.908Z,99.90
2018-06-15T23:45:22.422Z,99.90
2018-06-15T23:50:07.181Z,99.90
2018-06-15T23:54:51.566Z,99.90
2018-06-15T23:59:36.022Z,99.90
